createdAt,value
2023-04-02T00:01:32.085Z,101373.56
2023-04-02T00:04:22.254Z,101384.13
2023-04-02T00:07:30.419Z,101393.34
2023-04-02T00:10:00.589Z,101395.63
2023-04-02T00:12:30.085Z,101399.53
2023-04-02T00:15:02.285Z,101408.06
2023-04-02T00:17:31.774Z,101398.09
2023-04-02T00:20:05.471Z,101410.38
2023-04-02T00:22:35.178Z,101415.13
2023-04-02T00:25:11.222Z,101415.94
2023-04-02T00:27:40.828Z,101422.00
2023-04-02T00:30:15.772Z,101417.69
2023-04-02T00:32:45.397Z,101417.88
2023-04-02T00:35:20.199Z,101425.31
2023-04-02T00:37:49.963Z,101429.25
2023-04-02T00:40:23.711Z,101443.75
2023-04-02T00:42:53.870Z,101450.47
2023-04-02T00:45:29.883Z,101448.38
2023-04-02T00:48:01.022Z,101453.75
2023-04-02T00:50:33.682Z,101465.81
2023-04-02T00:53:07.377Z,101468.50
2023-04-02T00:55:39.628Z,101463.63
2023-04-02T00:58:18.226Z,101479.75
2023-04-02T01:00:55.147Z,101485.16
2023-04-02T01:03:37.020Z,101493.53
2023-04-02T01:06:11.735Z,101492.00
2023-04-02T01:08:55.907Z,101489.09
2023-04-02T01:11:51.138Z,101495.28
2023-04-02T01:14:23.389Z,101499.47
2023-04-02T01:17:01.426Z,101504.84
2023-04-02T01:19:58.653Z,101501.53
2023-04-02T01:22:30.969Z,101505.72
2023-04-02T01:25:01.127Z,101525.94
2023-04-02T01:27:33.048Z,101518.25
2023-04-02T01:30:07.494Z,101534.09
2023-04-02T01:32:37.555Z,101541.03
2023-04-02T01:35:08.510Z,101531.78
2023-04-02T01:37:40.649Z,101540.09
2023-04-02T01:40:19.336Z,101541.06
2023-04-02T01:42:54.223Z,101534.81
2023-04-02T01:45:29.010Z,101541.78
2023-04-02T01:47:59.187Z,101537.69
2023-04-02T01:50:33.798Z,101542.69
2023-04-02T01:53:04.402Z,101548.53
2023-04-02T01:55:37.953Z,101559.72
2023-04-02T01:58:07.691Z,101558.72
2023-04-02T02:00:44.754Z,101560.94
2023-04-02T02:03:15.647Z,101557.19
2023-04-02T02:05:46.560Z,101560.19
2023-04-02T02:08:26.455Z,101574.97
2023-04-02T02:10:55.997Z,101564.25
2023-04-02T02:13:25.659Z,101558.06
2023-04-02T02:16:00.028Z,101571.41
2023-04-02T02:18:29.617Z,101576.66
2023-04-02T02:21:00.822Z,101575.28
2023-04-02T02:23:32.566Z,101583.25
2023-04-02T02:26:02.260Z,101578.44
2023-04-02T02:28:34.490Z,101582.78
2023-04-02T02:31:09.510Z,101582.34
2023-04-02T02:33:42.145Z,101589.75
2023-04-02T02:36:17.938Z,101583.50
2023-04-02T02:38:54.408Z,101601.31
2023-04-02T02:41:28.873Z,101603.41
2023-04-02T02:44:05.047Z,101604.03
2023-04-02T02:46:38.280Z,101610.47
2023-04-02T02:49:08.980Z,101611.06
2023-04-02T02:51:43.840Z,101620.78
2023-04-02T02:54:13.565Z,101625.72
2023-04-02T02:56:47.143Z,101616.41
2023-04-02T02:59:17.722Z,101609.84
2023-04-02T03:01:50.302Z,101610.69
2023-04-02T03:04:23.763Z,101616.81
2023-04-02T03:06:57.167Z,101608.94
2023-04-02T03:09:34.568Z,101617.94
2023-04-02T03:12:08.707Z,101617.78
2023-04-02T03:14:41.963Z,101630.66
2023-04-02T03:17:17.320Z,101638.28
2023-04-02T03:19:49.924Z,101636.91
2023-04-02T03:22:24.013Z,101656.81
2023-04-02T03:24:58.871Z,101654.41
2023-04-02T03:27:31.297Z,101664.75
2023-04-02T03:30:21.331Z,101665.34
2023-04-02T03:32:57.270Z,101678.47
2023-04-02T03:35:31.520Z,101680.13
2023-04-02T03:38:03.734Z,101679.81
2023-04-02T03:40:36.918Z,101682.53
2023-04-02T03:43:13.678Z,101675.03
2023-04-02T03:45:45.167Z,101681.94
2023-04-02T03:48:21.558Z,101686.69
2023-04-02T03:50:55.461Z,101698.03
2023-04-02T03:53:26.887Z,101692.06
2023-04-02T03:55:56.907Z,101697.91
2023-04-02T03:58:29.414Z,101711.44
2023-04-02T04:01:03.991Z,101715.31
2023-04-02T04:03:42.338Z,101717.69
2023-04-02T04:06:13.671Z,101714.13
2023-04-02T04:08:47.046Z,101712.00
2023-04-02T04:11:20.123Z,101715.25
2023-04-02T04:13:53.767Z,101704.94
2023-04-02T04:16:26.663Z,101703.47
2023-04-02T04:19:04.595Z,101683.63
2023-04-02T04:21:37.483Z,101654.41
2023-04-02T04:24:08.580Z,101650.13
2023-04-02T04:26:49.667Z,101669.91
2023-04-02T04:29:30.270Z,101689.97
2023-04-02T04:32:01.671Z,101702.38
2023-04-02T04:34:42.402Z,101715.19
2023-04-02T04:37:21.693Z,101713.56
2023-04-02T04:39:53.827Z,101717.16
2023-04-02T04:42:26.326Z,101727.78
2023-04-02T04:45:00.547Z,101729.72
2023-04-02T04:47:33.675Z,101711.34
2023-04-02T04:50:08.835Z,101729.38
2023-04-02T04:52:40.496Z,101735.59
2023-04-02T04:55:27.299Z,101743.88
2023-04-02T04:57:59.793Z,101754.63
2023-04-02T05:00:42.436Z,101769.59
2023-04-02T05:03:17.275Z,101789.78
2023-04-02T05:05:49.411Z,101790.38
2023-04-02T05:08:22.850Z,101800.28
2023-04-02T05:10:54.268Z,101806.69
2023-04-02T05:13:26.336Z,101816.84
2023-04-02T05:16:01.100Z,101822.09
2023-04-02T05:18:34.250Z,101820.03
2023-04-02T05:21:11.148Z,101833.00
2023-04-02T05:23:47.647Z,101833.75
2023-04-02T05:26:19.658Z,101846.75
2023-04-02T05:28:53.953Z,101848.25
2023-04-02T05:31:26.072Z,101865.75
2023-04-02T05:33:56.452Z,101871.59
2023-04-02T05:36:30.681Z,101874.72
2023-04-02T05:39:01.197Z,101875.91
2023-04-02T05:41:36.774Z,101880.06
2023-04-02T05:44:09.898Z,101886.06
2023-04-02T05:46:46.669Z,101884.56
2023-04-02T05:49:21.082Z,101884.38
2023-04-02T05:51:57.616Z,101901.91
2023-04-02T05:54:30.283Z,101900.41
2023-04-02T05:57:03.565Z,101893.19
2023-04-02T05:59:39.569Z,101916.00
2023-04-02T06:02:14.585Z,101927.69
2023-04-02T06:04:47.849Z,101929.78
2023-04-02T06:07:23.368Z,101939.34
2023-04-02T06:09:56.002Z,101941.63
2023-04-02T06:12:30.138Z,101946.81
2023-04-02T06:14:59.734Z,101957.00
2023-04-02T06:17:30.058Z,101962.41
2023-04-02T06:20:00.490Z,101965.38
2023-04-02T06:22:37.093Z,101974.66
2023-04-02T06:25:09.893Z,101981.84
2023-04-02T06:27:40.182Z,101984.72
2023-04-02T06:30:17.946Z,101991.00
2023-04-02T06:32:47.499Z,101991.75
2023-04-02T06:35:17.589Z,102005.78
2023-04-02T06:37:51.282Z,102002.66
2023-04-02T06:40:31.601Z,102022.13
2023-04-02T06:43:03.992Z,102019.44
2023-04-02T06:45:36.134Z,102033.50
2023-04-02T06:48:06.790Z,102038.72
2023-04-02T06:50:41.114Z,102044.13
2023-04-02T06:53:22.661Z,102048.31
2023-04-02T06:55:54.623Z,102057.03
2023-04-02T06:58:24.565Z,102055.34
2023-04-02T07:00:54.187Z,102055.34
2023-04-02T07:03:27.320Z,102062.72
2023-04-02T07:05:57.165Z,102059.84
2023-04-02T07:08:29.454Z,102064.19
2023-04-02T07:10:59.178Z,102076.56
2023-04-02T07:13:28.686Z,102084.66
2023-04-02T07:15:58.517Z,102080.59
2023-04-02T07:18:30.630Z,102088.22
2023-04-02T07:21:00.901Z,102098.22
2023-04-02T07:23:33.007Z,102107.06
2023-04-02T07:26:02.498Z,102114.25
2023-04-02T07:28:32.545Z,102123.09
2023-04-02T07:31:02.296Z,102130.41
2023-04-02T07:33:32.950Z,102126.91
2023-04-02T07:36:02.469Z,102142.72
2023-04-02T07:38:34.593Z,102149.66
2023-04-02T07:41:08.133Z,102153.13
2023-04-02T07:43:37.841Z,102160.16
2023-04-02T07:46:07.884Z,102164.75
2023-04-02T07:48:37.505Z,102175.09
2023-04-02T07:51:07.591Z,102163.00
2023-04-02T07:53:41.855Z,102175.41
2023-04-02T07:56:12.810Z,102173.81
2023-04-02T07:58:42.586Z,102184.25
2023-04-02T08:01:20.039Z,102198.38
2023-04-02T08:03:51.297Z,102189.66
2023-04-02T08:06:22.719Z,102188.38
2023-04-02T08:08:55.334Z,102189.69
2023-04-02T08:11:24.913Z,102197.34
2023-04-02T08:13:54.812Z,102213.03
2023-04-02T08:16:25.508Z,102222.69
2023-04-02T08:18:55.077Z,102238.38
2023-04-02T08:21:25.523Z,102233.88
2023-04-02T08:23:57.672Z,102237.97
2023-04-02T08:26:27.447Z,102246.00
2023-04-02T08:28:56.905Z,102254.75
2023-04-02T08:31:26.543Z,102259.19
2023-04-02T08:33:56.967Z,102263.19
2023-04-02T08:36:30.832Z,102254.72
2023-04-02T08:39:04.648Z,102254.75
2023-04-02T08:41:39.280Z,102266.34
2023-04-02T08:44:17.064Z,102277.63
2023-04-02T08:46:48.642Z,102283.13
2023-04-02T08:49:23.214Z,102298.53
2023-04-02T08:51:52.850Z,102286.84
2023-04-02T08:54:28.095Z,102276.38
2023-04-02T08:57:00.938Z,102289.59
2023-04-02T08:59:35.201Z,102288.25
2023-04-02T09:02:25.934Z,102304.03
2023-04-02T09:04:56.097Z,102328.47
2023-04-02T09:07:26.605Z,102331.00
2023-04-02T09:09:58.761Z,102333.56
2023-04-02T09:12:30.094Z,102332.91
2023-04-02T09:15:09.708Z,102335.25
2023-04-02T09:17:50.551Z,102350.03
2023-04-02T09:20:26.473Z,102366.31
2023-04-02T09:22:56.758Z,102364.19
2023-04-02T09:25:31.582Z,102362.00
2023-04-02T09:28:04.248Z,102383.28
2023-04-02T09:30:45.541Z,102400.75
2023-04-02T09:33:15.076Z,102407.13
2023-04-02T09:35:58.040Z,102404.34
2023-04-02T09:38:30.859Z,102401.63
2023-04-02T09:41:04.803Z,102405.59
2023-04-02T09:43:35.955Z,102405.66
2023-04-02T09:46:09.206Z,102394.41
2023-04-02T09:48:40.889Z,102415.28
2023-04-02T09:51:16.540Z,102415.47
2023-04-02T09:53:49.230Z,102422.44
2023-04-02T09:56:23.462Z,102417.94
2023-04-02T09:59:07.060Z,102417.94
2023-04-02T10:01:38.954Z,102431.59
2023-04-02T10:04:20.359Z,102421.72
2023-04-02T10:06:53.969Z,102427.59
2023-04-02T10:09:28.787Z,102429.94
2023-04-02T10:12:01.806Z,102434.03
2023-04-02T10:14:33.349Z,102430.41
2023-04-02T10:17:06.621Z,102422.31
2023-04-02T10:19:37.590Z,102434.31
2023-04-02T10:22:09.623Z,102442.38
2023-04-02T10:24:39.176Z,102425.84
2023-04-02T10:27:22.574Z,102433.88
2023-04-02T10:30:10.508Z,102428.91
2023-04-02T10:32:43.816Z,102449.69
2023-04-02T10:35:20.093Z,102462.78
2023-04-02T10:38:18.376Z,102468.94
2023-04-02T10:40:51.114Z,102462.66
2023-04-02T10:43:43.371Z,102442.78
2023-04-02T10:46:18.042Z,102444.31
2023-04-02T10:48:53.041Z,102425.31
2023-04-02T10:51:31.782Z,102431.72
2023-04-02T10:54:06.551Z,102409.91
2023-04-02T10:56:48.073Z,102437.88
2023-04-02T10:59:27.196Z,102441.47
2023-04-02T11:01:58.626Z,102433.50
2023-04-02T11:04:31.229Z,102430.19
2023-04-02T11:07:13.743Z,102416.97
2023-04-02T11:09:45.795Z,102386.25
2023-04-02T11:12:24.419Z,102425.31
2023-04-02T11:14:57.345Z,102437.75
2023-04-02T11:17:27.313Z,102432.97
2023-04-02T11:19:56.891Z,102432.22
2023-04-02T11:22:27.591Z,102478.94
2023-04-02T11:24:57.845Z,102474.97
2023-04-02T11:27:32.688Z,102501.19
2023-04-02T11:30:11.832Z,102501.75
2023-04-02T11:32:43.092Z,102502.28
2023-04-02T11:35:29.750Z,102473.31
2023-04-02T11:38:03.951Z,102450.97
2023-04-02T11:40:49.533Z,102453.78
2023-04-02T11:43:49.200Z,102470.38
2023-04-02T11:46:39.203Z,102480.47
2023-04-02T11:49:40.105Z,102467.78
2023-04-02T11:52:24.435Z,102472.50
2023-04-02T11:55:02.724Z,102489.31
2023-04-02T11:57:50.020Z,102484.53
2023-04-02T12:00:31.635Z,102512.06
2023-04-02T12:03:19.136Z,102472.00
2023-04-02T12:05:54.769Z,102438.66
2023-04-02T12:08:27.598Z,102447.13
2023-04-02T12:11:02.789Z,102451.50
2023-04-02T12:13:51.583Z,102452.50
2023-04-02T12:16:21.500Z,102432.22
2023-04-02T12:18:55.196Z,102443.66
2023-04-02T12:21:26.434Z,102441.22
2023-04-02T12:23:58.171Z,102442.38
2023-04-02T12:26:32.318Z,102431.72
2023-04-02T12:29:23.853Z,102422.09
2023-04-02T12:31:53.604Z,102395.88
2023-04-02T12:34:27.111Z,102325.66
2023-04-02T12:36:59.699Z,102355.59
2023-04-02T12:39:29.429Z,102341.03
2023-04-02T12:41:59.567Z,102321.97
2023-04-02T12:44:31.216Z,102227.44
2023-04-02T12:47:01.281Z,102263.56
2023-04-02T12:49:39.420Z,102270.00
2023-04-02T12:52:10.306Z,102110.16
2023-04-02T12:54:46.369Z,102089.72
2023-04-02T12:57:42.902Z,102129.63
2023-04-02T13:00:36.198Z,102142.56
2023-04-02T13:03:20.927Z,102154.56
2023-04-02T13:05:56.536Z,102178.63
2023-04-02T13:08:28.161Z,102195.03
2023-04-02T13:10:59.663Z,102223.81
2023-04-02T13:13:33.027Z,102237.44
2023-04-02T13:16:08.426Z,102250.06
2023-04-02T13:18:39.718Z,102249.84
2023-04-02T13:21:30.133Z,102252.22
2023-04-02T13:23:59.660Z,102253.75
2023-04-02T13:26:31.017Z,102278.56
2023-04-02T13:29:02.600Z,102280.06
2023-04-02T13:31:33.419Z,102292.97
2023-04-02T13:34:03.139Z,102291.03
2023-04-02T13:36:35.687Z,102295.56
2023-04-02T13:39:05.206Z,102295.09
2023-04-02T13:41:38.054Z,102281.69
2023-04-02T13:44:07.928Z,102295.25
2023-04-02T13:46:38.407Z,102294.94
2023-04-02T13:49:07.888Z,102287.25
2023-04-02T13:51:42.147Z,102304.72
2023-04-02T13:54:14.558Z,102308.91
2023-04-02T13:56:44.072Z,102324.94
2023-04-02T13:59:13.717Z,102318.03
2023-04-02T14:01:43.897Z,102324.88
2023-04-02T14:04:13.923Z,102338.22
2023-04-02T14:07:10.777Z,102328.91
2023-04-02T14:09:45.745Z,102327.09
2023-04-02T14:12:21.937Z,102333.84
2023-04-02T14:15:03.275Z,102320.84
2023-04-02T14:17:40.881Z,102327.38
2023-04-02T14:20:23.164Z,102329.47
2023-04-02T14:23:04.636Z,102344.50
2023-04-02T14:25:37.845Z,102335.63
2023-04-02T14:28:11.389Z,102333.25
2023-04-02T14:30:48.267Z,102346.38
2023-04-02T14:33:27.302Z,102354.72
2023-04-02T14:36:00.343Z,102369.41
2023-04-02T14:38:37.953Z,102352.09
2023-04-02T14:41:11.644Z,102351.63
2023-04-02T14:43:44.938Z,102348.75
2023-04-02T14:46:14.565Z,102347.63
2023-04-02T14:48:48.071Z,102350.31
2023-04-02T14:51:23.760Z,102344.53
2023-04-02T14:54:01.518Z,102338.13
2023-04-02T14:56:31.979Z,102357.81
2023-04-02T14:59:14.476Z,102349.78
2023-04-02T15:01:47.130Z,102351.56
2023-04-02T15:04:19.784Z,102365.03
2023-04-02T15:06:53.312Z,102357.81
2023-04-02T15:09:30.431Z,102364.91
2023-04-02T15:12:03.060Z,102350.31
2023-04-02T15:14:37.098Z,102332.75
2023-04-02T15:17:06.684Z,102342.91
2023-04-02T15:19:36.137Z,102332.31
2023-04-02T15:22:29.109Z,102325.53
2023-04-02T15:25:09.717Z,102329.53
2023-04-02T15:27:53.014Z,102344.66
2023-04-02T15:30:26.364Z,102352.31
2023-04-02T15:32:57.546Z,102366.88
2023-04-02T15:35:35.669Z,102367.19
2023-04-02T15:38:11.787Z,102318.91
2023-04-02T15:40:49.648Z,102323.25
2023-04-02T15:43:23.710Z,102290.75
2023-04-02T15:46:19.639Z,102331.47
2023-04-02T15:49:10.218Z,102307.78
2023-04-02T15:52:02.823Z,102308.72
2023-04-02T15:54:46.878Z,102308.44
2023-04-02T15:57:42.079Z,102302.00
2023-04-02T16:00:22.460Z,102291.50
2023-04-02T16:03:06.820Z,102291.31
2023-04-02T16:05:42.224Z,102292.22
2023-04-02T16:08:27.420Z,102303.91
2023-04-02T16:10:56.985Z,102296.22
2023-04-02T16:13:34.067Z,102311.06
2023-04-02T16:16:07.878Z,102305.38
2023-04-02T16:18:45.558Z,102302.06
2023-04-02T16:21:19.580Z,102301.56
2023-04-02T16:23:49.173Z,102306.28
2023-04-02T16:26:31.556Z,102292.59
2023-04-02T16:29:11.659Z,102283.69
2023-04-02T16:31:46.961Z,102289.25
2023-04-02T16:34:24.481Z,102291.56
2023-04-02T16:36:59.268Z,102285.34
2023-04-02T16:39:37.894Z,102276.94
2023-04-02T16:42:17.455Z,102279.63
2023-04-02T16:44:57.987Z,102274.19
2023-04-02T16:47:39.638Z,102288.03
2023-04-02T16:50:16.406Z,102276.50
2023-04-02T16:52:52.977Z,102271.38
2023-04-02T16:55:32.952Z,102264.19
2023-04-02T16:58:12.820Z,102246.97
2023-04-02T17:00:48.934Z,102231.34
2023-04-02T17:03:34.774Z,102220.56
2023-04-02T17:06:08.076Z,102211.06
2023-04-02T17:08:43.205Z,102216.16
2023-04-02T17:11:17.992Z,102245.81
2023-04-02T17:13:50.580Z,102248.59
2023-04-02T17:16:31.546Z,102262.00
2023-04-02T17:19:01.224Z,102290.72
2023-04-02T17:21:31.918Z,102353.63
2023-04-02T17:24:05.299Z,102427.59
2023-04-02T17:26:37.744Z,102473.31
2023-04-02T17:29:10.662Z,102509.66
2023-04-02T17:31:43.604Z,102548.19
2023-04-02T17:34:16.399Z,102576.28
2023-04-02T17:36:51.798Z,102606.78
2023-04-02T17:39:25.754Z,102626.91
2023-04-02T17:41:59.358Z,102671.09
2023-04-02T17:44:49.030Z,102709.75
2023-04-02T17:47:23.497Z,102744.56
2023-04-02T17:50:00.557Z,102778.72
2023-04-02T17:52:33.809Z,102789.81
2023-04-02T17:55:09.637Z,102830.22
2023-04-02T17:57:50.181Z,102876.66
2023-04-02T18:00:26.162Z,102891.22
2023-04-02T18:03:09.725Z,102900.41
2023-04-02T18:05:42.184Z,102912.44
2023-04-02T18:08:18.859Z,102913.03
2023-04-02T18:10:53.032Z,102938.31
2023-04-02T18:13:27.367Z,102972.72
2023-04-02T18:16:03.413Z,102987.78
2023-04-02T18:18:55.107Z,103019.59
2023-04-02T18:21:27.964Z,103051.34
2023-04-02T18:24:09.938Z,103069.19
2023-04-02T18:26:44.026Z,103064.97
2023-04-02T18:29:20.238Z,103074.28
2023-04-02T18:31:53.783Z,103080.28
2023-04-02T18:34:52.473Z,103076.91
2023-04-02T18:37:27.173Z,103069.81
2023-04-02T18:40:07.158Z,103064.00
2023-04-02T18:42:47.689Z,103079.88
2023-04-02T18:45:21.068Z,103083.91
2023-04-02T18:47:57.414Z,103100.75
2023-04-02T18:50:32.846Z,103094.31
2023-04-02T18:53:03.981Z,103100.13
2023-04-02T18:55:34.322Z,103093.44
2023-04-02T18:58:06.850Z,103098.66
2023-04-02T19:00:39.417Z,103081.31
2023-04-02T19:03:13.659Z,103093.66
2023-04-02T19:05:49.594Z,103086.63
2023-04-02T19:08:22.421Z,103099.44
2023-04-02T19:10:54.963Z,103075.00
2023-04-02T19:13:24.507Z,103079.59
2023-04-02T19:16:27.530Z,103093.03
2023-04-02T19:19:05.746Z,103086.38
2023-04-02T19:21:45.735Z,103118.88
2023-04-02T19:24:27.365Z,103123.97
2023-04-02T19:27:00.041Z,103120.81
2023-04-02T19:29:39.574Z,103130.44
2023-04-02T19:32:15.682Z,103136.06
2023-04-02T19:34:50.321Z,103145.91
2023-04-02T19:37:25.230Z,103155.00
2023-04-02T19:40:12.997Z,103158.81
2023-04-02T19:42:46.509Z,103167.75
2023-04-02T19:45:31.522Z,103161.19
2023-04-02T19:48:02.817Z,103167.13
2023-04-02T19:50:32.453Z,103178.91
2023-04-02T19:53:04.531Z,103185.84
2023-04-02T19:55:34.498Z,103185.28
2023-04-02T19:58:17.315Z,103192.16
2023-04-02T20:00:49.254Z,103185.13
2023-04-02T20:03:18.756Z,103186.38
2023-04-02T20:05:48.354Z,103187.47
2023-04-02T20:08:20.754Z,103188.22
2023-04-02T20:10:50.247Z,103189.34
2023-04-02T20:13:19.785Z,103188.22
2023-04-02T20:15:51.454Z,103195.53
2023-04-02T20:18:21.177Z,103202.22
2023-04-02T20:20:51.497Z,103204.59
2023-04-02T20:23:23.578Z,103206.06
2023-04-02T20:25:55.382Z,103211.16
2023-04-02T20:28:26.418Z,103221.34
2023-04-02T20:30:56.974Z,103234.75
2023-04-02T20:33:28.220Z,103231.88
2023-04-02T20:36:04.751Z,103226.94
2023-04-02T20:38:37.777Z,103236.03
2023-04-02T20:41:08.318Z,103226.06
2023-04-02T20:43:40.729Z,103231.31
2023-04-02T20:46:11.691Z,103236.41
2023-04-02T20:48:42.431Z,103240.94
2023-04-02T20:51:14.350Z,103238.78
2023-04-02T20:53:46.755Z,103240.06
2023-04-02T20:56:17.443Z,103243.88
2023-04-02T20:58:47.045Z,103246.06
2023-04-02T21:01:19.881Z,103249.31
2023-04-02T21:03:49.846Z,103240.25
2023-04-02T21:06:21.227Z,103243.13
2023-04-02T21:08:53.927Z,103240.97
2023-04-02T21:11:24.285Z,103245.88
2023-04-02T21:13:53.935Z,103253.31
2023-04-02T21:16:24.769Z,103254.59
2023-04-02T21:18:55.608Z,103257.84
2023-04-02T21:21:25.717Z,103251.84
2023-04-02T21:24:00.480Z,103252.97
2023-04-02T21:26:32.430Z,103256.41
2023-04-02T21:29:02.988Z,103260.41
2023-04-02T21:31:33.905Z,103264.00
2023-04-02T21:34:03.549Z,103268.03
2023-04-02T21:36:34.590Z,103266.38
2023-04-02T21:39:08.618Z,103267.81
2023-04-02T21:41:39.461Z,103268.88
2023-04-02T21:44:11.283Z,103264.13
2023-04-02T21:46:42.628Z,103269.94
2023-04-02T21:49:12.954Z,103272.97
2023-04-02T21:51:43.577Z,103275.16
2023-04-02T21:54:16.776Z,103271.19
2023-04-02T21:56:47.691Z,103267.50
2023-04-02T21:59:18.995Z,103268.13
2023-04-02T22:01:51.229Z,103268.78
2023-04-02T22:04:22.460Z,103270.22
2023-04-02T22:06:53.490Z,103268.75
2023-04-02T22:09:26.669Z,103273.06
2023-04-02T22:11:59.338Z,103274.13
2023-04-02T22:14:29.512Z,103276.63
2023-04-02T22:16:59.159Z,103268.50
2023-04-02T22:19:29.730Z,103282.66
2023-04-02T22:21:59.244Z,103282.25
2023-04-02T22:24:31.472Z,103277.50
2023-04-02T22:27:00.996Z,103281.03
2023-04-02T22:29:30.531Z,103288.56
2023-04-02T22:32:00.099Z,103283.09
2023-04-02T22:34:29.790Z,103283.41
2023-04-02T22:36:59.465Z,103285.06
2023-04-02T22:39:31.578Z,103284.09
2023-04-02T22:42:01.107Z,103282.59
2023-04-02T22:44:30.646Z,103279.84
2023-04-02T22:47:00.116Z,103282.06
2023-04-02T22:49:29.578Z,103289.09
2023-04-02T22:51:59.065Z,103283.56
2023-04-02T22:54:31.219Z,103286.69
2023-04-02T22:57:00.681Z,103281.59
2023-04-02T22:59:30.201Z,103282.28
2023-04-02T23:01:59.879Z,103288.19
2023-04-02T23:04:29.465Z,103292.22
2023-04-02T23:06:58.989Z,103286.38
2023-04-02T23:09:31.302Z,103291.81
2023-04-02T23:12:00.795Z,103294.56
2023-04-02T23:14:30.532Z,103300.59
2023-04-02T23:17:00.057Z,103306.50
2023-04-02T23:19:29.578Z,103311.13
2023-04-02T23:21:59.080Z,103311.53
2023-04-02T23:24:31.130Z,103318.44
2023-04-02T23:27:00.737Z,103321.69
2023-04-02T23:29:30.210Z,103320.19
2023-04-02T23:31:59.786Z,103320.56
2023-04-02T23:34:29.319Z,103313.34
2023-04-02T23:36:58.814Z,103311.53
2023-04-02T23:39:30.867Z,103322.25
2023-04-02T23:42:00.847Z,103323.34
2023-04-02T23:44:30.496Z,103321.41
2023-04-02T23:47:00.144Z,103327.91
2023-04-02T23:49:29.804Z,103334.38
2023-04-02T23:51:59.364Z,103336.41
2023-04-02T23:54:31.533Z,103342.03
2023-04-02T23:57:01.002Z,103340.28
2023-04-02T23:59:30.506Z,103345.69
